createdAt,value
2022-10-07T00:02:11.062Z,79.10
2022-10-07T00:06:17.421Z,79.40
2022-10-07T00:09:59.291Z,81.20
2022-10-07T00:13:43.516Z,79.40
2022-10-07T00:17:25.662Z,79.50
2022-10-07T00:21:13.908Z,79.40
2022-10-07T00:24:55.920Z,79.50
2022-10-07T00:28:38.207Z,79.50
2022-10-07T00:32:20.105Z,79.60
2022-10-07T00:36:06.331Z,79.60
2022-10-07T00:39:48.215Z,79.90
2022-10-07T00:43:31.457Z,80.70
2022-10-07T00:47:24.264Z,79.40
2022-10-07T00:51:08.262Z,79.50
2022-10-07T00:54:53.567Z,79.80
2022-10-07T00:58:38.977Z,79.90
2022-10-07T01:02:25.056Z,80.10
2022-10-07T01:06:07.154Z,80.10
2022-10-07T01:09:51.708Z,80.00
2022-10-07T01:13:45.350Z,80.00
2022-10-07T01:17:30.066Z,80.80
2022-10-07T01:21:23.977Z,80.10
2022-10-07T01:25:28.060Z,80.80
2022-10-07T01:29:19.640Z,81.10
2022-10-07T01:33:06.825Z,80.30
2022-10-07T01:36:52.344Z,80.30
2022-10-07T01:40:39.413Z,80.10
2022-10-07T01:44:22.040Z,80.30
2022-10-07T01:48:04.240Z,80.30
2022-10-07T01:52:11.948Z,80.50
2022-10-07T01:56:12.983Z,81.00
2022-10-07T02:00:10.056Z,80.70
2022-10-07T02:04:20.282Z,81.00
2022-10-07T02:08:30.749Z,82.40
2022-10-07T02:12:34.488Z,81.80
2022-10-07T02:16:19.503Z,82.10
2022-10-07T02:20:04.333Z,81.00
2022-10-07T02:23:47.904Z,81.00
2022-10-07T02:27:35.104Z,81.00
2022-10-07T02:31:18.582Z,81.20
2022-10-07T02:35:17.567Z,81.10
2022-10-07T02:39:01.278Z,81.90
2022-10-07T02:42:53.307Z,81.20
2022-10-07T02:46:41.881Z,81.60
2022-10-07T02:50:27.504Z,81.40
2022-10-07T02:54:09.462Z,81.40
2022-10-07T02:57:57.451Z,81.40
2022-10-07T03:01:46.749Z,81.50
2022-10-07T03:05:29.660Z,81.50
2022-10-07T03:09:12.149Z,81.50
2022-10-07T03:12:54.008Z,81.60
2022-10-07T03:16:36.188Z,81.70
2022-10-07T03:20:18.186Z,81.80
2022-10-07T03:24:04.944Z,81.90
2022-10-07T03:27:48.662Z,81.90
2022-10-07T03:31:31.429Z,81.90
2022-10-07T03:35:13.689Z,81.80
2022-10-07T03:38:55.742Z,81.90
2022-10-07T03:42:37.715Z,81.90
2022-10-07T03:46:19.827Z,82.10
2022-10-07T03:50:01.829Z,82.20
2022-10-07T03:53:43.859Z,82.30
2022-10-07T03:58:04.167Z,82.40
2022-10-07T04:01:46.110Z,82.30
2022-10-07T04:05:29.237Z,82.30
2022-10-07T04:09:14.908Z,82.30
2022-10-07T04:12:56.933Z,82.40
2022-10-07T04:16:38.938Z,82.40
2022-10-07T04:20:20.804Z,82.50
2022-10-07T04:24:02.707Z,82.50
2022-10-07T04:27:51.995Z,82.60
2022-10-07T04:31:34.163Z,82.60
2022-10-07T04:35:19.286Z,82.50
2022-10-07T04:39:01.168Z,82.50
2022-10-07T04:43:01.486Z,82.60
2022-10-07T04:46:43.481Z,82.70
2022-10-07T04:50:26.084Z,82.70
2022-10-07T04:54:08.599Z,82.90
2022-10-07T04:57:50.532Z,82.90
2022-10-07T05:01:32.435Z,82.70
2022-10-07T05:05:14.442Z,82.80
2022-10-07T05:08:56.784Z,82.90
2022-10-07T05:12:41.635Z,82.80
2022-10-07T05:16:23.738Z,82.90
2022-10-07T05:20:06.222Z,82.80
2022-10-07T05:23:48.135Z,82.80
2022-10-07T05:27:30.030Z,82.80
2022-10-07T05:31:14.401Z,82.80
2022-10-07T05:34:56.426Z,82.70
2022-10-07T05:38:38.430Z,82.80
2022-10-07T05:42:20.443Z,82.70
2022-10-07T05:46:05.095Z,82.70
2022-10-07T05:49:47.177Z,82.70
2022-10-07T05:53:30.129Z,82.70
2022-10-07T05:57:11.965Z,82.70
2022-10-07T06:00:59.958Z,82.70
2022-10-07T06:04:49.301Z,82.70
2022-10-07T06:08:31.369Z,82.90
2022-10-07T06:12:31.661Z,83.00
2022-10-07T06:16:13.607Z,83.00
2022-10-07T06:19:55.511Z,83.10
2022-10-07T06:23:37.782Z,83.10
2022-10-07T06:27:19.749Z,83.20
2022-10-07T06:31:05.536Z,83.10
2022-10-07T06:34:47.581Z,83.00
2022-10-07T06:38:29.503Z,83.10
2022-10-07T06:42:11.595Z,82.90
2022-10-07T06:45:58.876Z,82.90
2022-10-07T06:49:40.902Z,82.90
2022-10-07T06:53:23.226Z,82.80
2022-10-07T06:57:20.420Z,82.80
2022-10-07T07:01:07.215Z,82.70
2022-10-07T07:04:51.131Z,82.60
2022-10-07T07:08:36.238Z,82.60
2022-10-07T07:12:18.140Z,82.50
2022-10-07T07:16:00.393Z,82.50
2022-10-07T07:19:42.767Z,82.50
2022-10-07T07:23:25.910Z,82.50
2022-10-07T07:27:09.934Z,82.50
2022-10-07T07:30:51.869Z,82.30
2022-10-07T07:34:36.426Z,82.30
2022-10-07T07:38:22.185Z,82.40
2022-10-07T07:42:06.795Z,82.40
2022-10-07T07:45:48.814Z,82.50
2022-10-07T07:49:32.357Z,82.40
2022-10-07T07:53:14.379Z,82.50
2022-10-07T07:56:57.763Z,82.50
2022-10-07T08:00:39.631Z,82.20
2022-10-07T08:04:21.852Z,82.00
2022-10-07T08:08:03.975Z,81.90
2022-10-07T08:11:46.067Z,81.90
2022-10-07T08:15:28.552Z,81.80
2022-10-07T08:19:12.574Z,81.50
2022-10-07T08:22:58.833Z,81.30
2022-10-07T08:26:41.321Z,81.10
2022-10-07T08:30:24.109Z,81.30
2022-10-07T08:34:06.517Z,81.10
2022-10-07T08:37:50.587Z,80.40
2022-10-07T08:41:55.308Z,79.70
2022-10-07T08:45:37.291Z,77.40
2022-10-07T08:49:32.758Z,76.80
2022-10-07T08:53:27.078Z,75.90
2022-10-07T08:57:23.004Z,73.20
2022-10-07T09:01:19.103Z,72.20
2022-10-07T09:05:32.631Z,70.30
2022-10-07T09:09:33.866Z,71.20
2022-10-07T09:13:36.109Z,68.60
2022-10-07T09:17:36.351Z,65.50
2022-10-07T09:21:29.386Z,65.90
2022-10-07T09:25:23.378Z,64.20
2022-10-07T09:29:08.055Z,61.20
2022-10-07T09:32:56.438Z,61.50
2022-10-07T09:37:22.073Z,62.20
2022-10-07T09:41:15.903Z,62.10
2022-10-07T09:45:02.006Z,63.00
2022-10-07T09:48:52.994Z,63.80
2022-10-07T09:52:36.254Z,62.70
2022-10-07T09:56:51.338Z,62.40
2022-10-07T10:00:42.236Z,61.80
2022-10-07T10:04:32.723Z,61.70
2022-10-07T10:08:17.674Z,60.30
2022-10-07T10:12:15.271Z,59.40
2022-10-07T10:16:11.020Z,58.80
2022-10-07T10:19:56.617Z,57.10
2022-10-07T10:23:48.385Z,56.50
2022-10-07T10:27:43.293Z,54.90
2022-10-07T10:32:07.201Z,52.80
2022-10-07T10:36:06.175Z,50.80
2022-10-07T10:40:04.750Z,49.20
2022-10-07T10:43:52.424Z,47.30
2022-10-07T10:47:45.948Z,47.30
2022-10-07T10:51:40.989Z,45.10
2022-10-07T10:56:00.940Z,45.80
2022-10-07T10:59:43.428Z,45.30
2022-10-07T11:03:31.371Z,46.10
2022-10-07T11:07:29.734Z,46.80
2022-10-07T11:11:17.634Z,48.20
2022-10-07T11:15:16.067Z,49.70
2022-10-07T11:19:13.219Z,50.10
2022-10-07T11:23:08.328Z,49.20
2022-10-07T11:26:51.032Z,49.00
2022-10-07T11:31:00.167Z,49.50
2022-10-07T11:35:11.944Z,47.90
2022-10-07T11:38:53.879Z,48.90
2022-10-07T11:42:43.135Z,50.40
2022-10-07T11:46:36.381Z,49.20
2022-10-07T11:50:27.037Z,47.00
2022-10-07T11:54:16.122Z,44.90
2022-10-07T11:58:00.603Z,44.80
2022-10-07T12:01:52.674Z,44.60
2022-10-07T12:05:34.660Z,43.20
2022-10-07T12:09:54.635Z,43.20
2022-10-07T12:13:38.069Z,41.70
2022-10-07T12:17:23.329Z,44.10
2022-10-07T12:21:06.646Z,44.80
2022-10-07T12:25:29.327Z,44.80
2022-10-07T12:29:23.917Z,43.70
2022-10-07T12:33:36.874Z,43.50
2022-10-07T12:37:40.874Z,43.30
2022-10-07T12:41:47.486Z,44.00
2022-10-07T12:45:32.688Z,45.60
2022-10-07T12:49:33.826Z,47.60
2022-10-07T12:53:26.005Z,47.50
2022-10-07T12:57:23.121Z,48.70
2022-10-07T13:01:43.052Z,48.60
2022-10-07T13:05:44.026Z,48.70
2022-10-07T13:09:52.178Z,48.10
2022-10-07T13:13:53.020Z,48.30
2022-10-07T13:18:11.048Z,49.00
2022-10-07T13:22:09.442Z,48.70
2022-10-07T13:25:54.083Z,49.20
2022-10-07T13:29:37.819Z,49.60
2022-10-07T13:33:19.665Z,49.80
2022-10-07T13:37:02.343Z,49.20
2022-10-07T13:40:44.657Z,46.50
2022-10-07T13:44:30.469Z,43.90
2022-10-07T13:48:34.649Z,41.80
2022-10-07T13:52:36.371Z,41.60
2022-10-07T13:56:39.020Z,43.10
2022-10-07T14:00:36.620Z,45.50
2022-10-07T14:04:25.968Z,47.60
2022-10-07T14:08:21.580Z,49.30
2022-10-07T14:12:16.076Z,50.20
2022-10-07T14:16:02.457Z,51.10
2022-10-07T14:19:53.995Z,51.60
2022-10-07T14:23:42.023Z,52.00
2022-10-07T14:27:47.621Z,52.40
2022-10-07T14:31:50.938Z,52.60
2022-10-07T14:35:34.559Z,52.70
2022-10-07T14:39:34.930Z,52.70
2022-10-07T14:43:21.601Z,52.00
2022-10-07T14:47:15.947Z,51.90
2022-10-07T14:51:01.768Z,51.80
2022-10-07T14:54:47.040Z,52.10
2022-10-07T14:58:33.362Z,52.00
2022-10-07T15:02:22.762Z,52.30
2022-10-07T15:06:07.031Z,52.10
2022-10-07T15:09:49.644Z,53.00
2022-10-07T15:13:34.096Z,54.40
2022-10-07T15:17:21.145Z,55.70
2022-10-07T15:21:04.293Z,57.30
2022-10-07T15:24:46.526Z,58.10
2022-10-07T15:28:33.273Z,59.30
2022-10-07T15:32:15.188Z,60.80
2022-10-07T15:35:58.798Z,61.60
2022-10-07T15:39:40.739Z,62.50
2022-10-07T15:43:23.355Z,62.90
2022-10-07T15:47:06.256Z,63.40
2022-10-07T15:50:49.001Z,64.20
2022-10-07T15:54:32.156Z,64.90
2022-10-07T15:58:14.007Z,65.10
2022-10-07T16:01:56.228Z,65.50
2022-10-07T16:05:38.219Z,65.70
2022-10-07T16:09:24.306Z,65.90
2022-10-07T16:13:06.197Z,66.60
2022-10-07T16:16:48.105Z,65.80
2022-10-07T16:20:30.216Z,66.00
2022-10-07T16:24:16.358Z,66.30
2022-10-07T16:28:16.947Z,66.50
2022-10-07T16:31:59.957Z,66.20
2022-10-07T16:35:42.495Z,66.60
2022-10-07T16:39:24.937Z,66.80
2022-10-07T16:43:06.885Z,67.20
2022-10-07T16:46:49.234Z,67.20
2022-10-07T16:50:31.879Z,67.40
2022-10-07T16:54:16.356Z,67.70
2022-10-07T16:57:58.282Z,67.80
2022-10-07T17:01:40.406Z,68.00
2022-10-07T17:05:22.495Z,68.20
2022-10-07T17:09:04.776Z,68.40
2022-10-07T17:12:46.959Z,68.60
2022-10-07T17:16:33.012Z,68.80
2022-10-07T17:20:15.405Z,69.10
2022-10-07T17:23:58.275Z,69.10
2022-10-07T17:27:40.263Z,69.30
2022-10-07T17:31:22.322Z,69.40
2022-10-07T17:35:04.652Z,69.60
2022-10-07T17:38:46.902Z,69.80
2022-10-07T17:42:29.054Z,70.10
2022-10-07T17:46:14.074Z,70.40
2022-10-07T17:49:55.984Z,70.60
2022-10-07T17:53:39.700Z,70.80
2022-10-07T17:57:22.356Z,70.90
2022-10-07T18:01:13.805Z,71.10
2022-10-07T18:04:55.763Z,71.40
2022-10-07T18:08:42.026Z,71.70
2022-10-07T18:12:42.587Z,72.30
2022-10-07T18:16:24.612Z,72.00
2022-10-07T18:20:11.391Z,71.60
2022-10-07T18:23:58.137Z,71.70
2022-10-07T18:27:40.529Z,71.90
2022-10-07T18:31:22.556Z,72.10
2022-10-07T18:35:04.807Z,72.20
2022-10-07T18:38:46.831Z,72.30
2022-10-07T18:42:29.007Z,72.60
2022-10-07T18:46:14.520Z,72.60
2022-10-07T18:49:57.655Z,72.80
2022-10-07T18:53:41.469Z,72.50
2022-10-07T18:57:23.669Z,72.50
2022-10-07T19:01:14.546Z,72.70
2022-10-07T19:04:56.676Z,73.70
2022-10-07T19:08:39.353Z,72.90
2022-10-07T19:12:39.710Z,72.90
2022-10-07T19:16:25.043Z,73.00
2022-10-07T19:20:07.494Z,72.90
2022-10-07T19:23:51.702Z,73.10
2022-10-07T19:27:33.563Z,73.10
2022-10-07T19:31:18.006Z,73.10
2022-10-07T19:35:00.211Z,73.20
2022-10-07T19:38:46.021Z,73.30
2022-10-07T19:42:28.742Z,73.40
2022-10-07T19:46:11.565Z,73.50
2022-10-07T19:49:53.580Z,73.60
2022-10-07T19:53:36.316Z,73.70
2022-10-07T19:57:18.184Z,73.80
2022-10-07T20:01:09.495Z,73.90
2022-10-07T20:04:51.470Z,74.90
2022-10-07T20:08:36.813Z,74.00
2022-10-07T20:12:19.231Z,74.20
2022-10-07T20:16:12.701Z,74.20
2022-10-07T20:19:56.709Z,75.10
2022-10-07T20:23:41.401Z,74.30
2022-10-07T20:27:23.422Z,74.40
2022-10-07T20:31:07.544Z,74.40
2022-10-07T20:34:50.277Z,74.40
2022-10-07T20:38:52.349Z,74.40
2022-10-07T20:42:34.898Z,74.40
2022-10-07T20:46:17.157Z,74.40
2022-10-07T20:50:02.320Z,74.50
2022-10-07T20:53:48.517Z,74.50
2022-10-07T20:57:38.227Z,74.70
2022-10-07T21:01:20.770Z,74.90
2022-10-07T21:05:03.002Z,74.20
2022-10-07T21:08:47.351Z,74.40
2022-10-07T21:12:30.351Z,74.40
2022-10-07T21:16:12.451Z,74.50
2022-10-07T21:19:55.935Z,74.60
2022-10-07T21:23:38.245Z,74.60
2022-10-07T21:27:20.999Z,74.70
2022-10-07T21:31:05.154Z,74.70
2022-10-07T21:34:47.301Z,74.70
2022-10-07T21:38:29.318Z,74.80
2022-10-07T21:42:11.633Z,74.70
2022-10-07T21:45:59.125Z,74.70
2022-10-07T21:49:41.564Z,74.80
2022-10-07T21:53:24.065Z,74.70
2022-10-07T21:57:06.426Z,74.70
2022-10-07T22:00:48.840Z,74.60
2022-10-07T22:04:30.953Z,74.50
2022-10-07T22:08:33.890Z,74.40
2022-10-07T22:12:15.859Z,74.30
2022-10-07T22:16:01.896Z,74.30
2022-10-07T22:19:43.999Z,74.20
2022-10-07T22:23:26.107Z,74.20
2022-10-07T22:27:08.374Z,74.20
2022-10-07T22:30:51.083Z,74.10
2022-10-07T22:34:51.441Z,74.10
2022-10-07T22:38:33.545Z,74.10
2022-10-07T22:42:15.686Z,74.10
2022-10-07T22:45:58.926Z,74.10
2022-10-07T22:49:48.840Z,74.10
2022-10-07T22:53:30.744Z,74.40
2022-10-07T22:57:12.744Z,74.10
2022-10-07T23:00:54.685Z,74.10
2022-10-07T23:04:37.467Z,74.10
2022-10-07T23:08:19.547Z,74.10
2022-10-07T23:12:01.530Z,73.90
2022-10-07T23:15:43.515Z,73.80
2022-10-07T23:19:25.886Z,73.60
2022-10-07T23:23:07.838Z,73.50
2022-10-07T23:26:50.088Z,73.40
2022-10-07T23:30:37.482Z,73.30
2022-10-07T23:34:19.602Z,73.30
2022-10-07T23:38:01.612Z,73.20
2022-10-07T23:41:43.554Z,73.00
2022-10-07T23:45:27.765Z,72.90
2022-10-07T23:49:12.050Z,72.90
2022-10-07T23:52:54.292Z,72.80
2022-10-07T23:56:36.399Z,72.80
